createdAt,value
2017-06-03T00:07:25.578Z,100
2017-06-03T00:17:34.858Z,100
2017-06-03T00:27:44.156Z,100
2017-06-03T00:37:53.454Z,100
2017-06-03T00:48:02.679Z,100
2017-06-03T00:58:11.973Z,100
2017-06-03T01:08:21.297Z,100
2017-06-03T01:18:30.592Z,100
2017-06-03T01:28:39.882Z,100
2017-06-03T01:38:49.229Z,100
2017-06-03T01:48:58.632Z,100
2017-06-03T01:59:08.032Z,100
2017-06-03T02:09:17.437Z,100
2017-06-03T02:19:26.885Z,100
2017-06-03T02:29:36.265Z,100
2017-06-03T02:39:45.693Z,100
2017-06-03T02:49:55.098Z,100
2017-06-03T03:00:04.530Z,100
2017-06-03T03:10:13.833Z,100
2017-06-03T03:20:23.209Z,100
2017-06-03T03:30:32.641Z,100
2017-06-03T03:40:42.140Z,100
2017-06-03T03:50:51.509Z,100
2017-06-03T04:01:00.952Z,100
2017-06-03T04:11:10.338Z,100
2017-06-03T04:21:19.826Z,100
2017-06-03T04:31:29.255Z,100
2017-06-03T04:41:38.690Z,100
2017-06-03T04:51:48.134Z,100
2017-06-03T05:01:57.566Z,100
2017-06-03T05:12:07.005Z,100
2017-06-03T05:22:16.379Z,100
2017-06-03T05:32:25.700Z,100
2017-06-03T05:42:35.013Z,100
2017-06-03T05:52:44.302Z,100
2017-06-03T06:02:53.634Z,100
2017-06-03T06:13:02.902Z,100
2017-06-03T06:23:12.090Z,100
2017-06-03T06:33:21.283Z,100
2017-06-03T06:43:30.402Z,100
2017-06-03T06:53:39.484Z,100
2017-06-03T07:03:48.556Z,100
2017-06-03T07:13:57.522Z,100
2017-06-03T07:24:06.491Z,100
2017-06-03T07:34:15.487Z,100
2017-06-03T07:44:24.537Z,100
2017-06-03T07:54:33.548Z,100
2017-06-03T08:04:42.325Z,100
2017-06-03T08:14:50.843Z,100
2017-06-03T08:24:59.126Z,100
2017-06-03T08:35:07.217Z,100
2017-06-03T08:45:15.239Z,100
2017-06-03T08:55:23.127Z,94.4
2017-06-03T09:05:30.739Z,88
2017-06-03T09:15:38.196Z,79.7
2017-06-03T09:25:45.355Z,78.5
2017-06-03T09:35:52.390Z,73.3
2017-06-03T09:45:59.303Z,69
2017-06-03T09:56:06.293Z,63.7
2017-06-03T10:06:13.339Z,62.3
2017-06-03T10:16:20.385Z,60.4
2017-06-03T10:26:27.569Z,61.1
2017-06-03T10:36:34.274Z,60
2017-06-03T10:46:41.180Z,58
2017-06-03T10:56:48.082Z,51.2
2017-06-03T11:06:54.984Z,52.2
2017-06-03T11:17:01.867Z,50.9
2017-06-03T11:27:08.698Z,53.9
2017-06-03T11:37:15.519Z,49.4
2017-06-03T11:47:22.312Z,52.4
2017-06-03T11:57:29.123Z,53.3
2017-06-03T12:07:36.027Z,54.9
2017-06-03T12:17:42.988Z,54.9
2017-06-03T12:27:50.052Z,52.2
2017-06-03T12:37:56.877Z,46.6
2017-06-03T12:48:03.663Z,48.2
2017-06-03T12:58:10.662Z,49.1
2017-06-03T13:08:17.846Z,46.5
2017-06-03T13:18:25.074Z,46.1
2017-06-03T13:28:32.327Z,47
2017-06-03T13:38:39.603Z,47.3
2017-06-03T13:48:46.736Z,44.3
2017-06-03T13:58:53.696Z,46.6
2017-06-03T14:09:00.940Z,49.2
2017-06-03T14:19:08.394Z,49.5
2017-06-03T14:29:15.982Z,49.5
2017-06-03T14:39:23.588Z,50.9
2017-06-03T14:49:31.266Z,57.4
2017-06-03T14:59:39.083Z,67.3
2017-06-03T15:09:46.948Z,66.9
2017-06-03T15:19:54.607Z,66.6
2017-06-03T15:30:01.831Z,59.7
2017-06-03T15:40:08.784Z,65.4
2017-06-03T15:50:15.621Z,72.6
2017-06-03T16:00:22.518Z,67.5
2017-06-03T16:10:29.516Z,69.1
2017-06-03T16:20:36.673Z,70.6
2017-06-03T16:40:51.423Z,76.3
2017-06-03T16:50:59.204Z,72.7
2017-06-03T17:01:06.697Z,75.4
2017-06-03T17:11:14.562Z,78
2017-06-03T17:21:22.468Z,78.3
2017-06-03T17:31:30.549Z,77.2
2017-06-03T17:41:38.720Z,77.6
2017-06-03T17:51:46.906Z,77.5
2017-06-03T18:01:55.247Z,81.3
2017-06-03T18:12:03.687Z,84.6
2017-06-03T18:22:12.246Z,85.3
2017-06-03T18:32:20.823Z,86.7
2017-06-03T18:42:29.411Z,89.2
2017-06-03T18:52:38.062Z,92.4
2017-06-03T19:02:46.751Z,96.7
2017-06-03T19:12:55.537Z,100
2017-06-03T19:23:04.343Z,100
2017-06-03T19:33:13.200Z,100
2017-06-03T19:43:22.062Z,100
2017-06-03T19:53:30.931Z,94.1
2017-06-03T20:03:39.896Z,95
2017-06-03T20:13:48.882Z,99.8
2017-06-03T20:23:57.929Z,100
2017-06-03T20:34:07.047Z,100
2017-06-03T20:44:16.216Z,100
2017-06-03T20:54:25.416Z,100
2017-06-03T21:04:34.621Z,100
2017-06-03T21:14:43.788Z,100
2017-06-03T21:24:52.976Z,100
2017-06-03T21:35:02.182Z,100
2017-06-03T21:45:11.421Z,100
2017-06-03T21:55:20.689Z,100
2017-06-03T22:05:30.007Z,100
2017-06-03T22:15:39.375Z,100
2017-06-03T22:25:48.717Z,100
2017-06-03T22:35:58.057Z,100
2017-06-03T22:46:07.428Z,100
2017-06-03T22:56:16.887Z,100
2017-06-03T23:06:26.372Z,100
2017-06-03T23:16:35.912Z,100
2017-06-03T23:26:45.456Z,100
2017-06-03T23:36:54.981Z,100
2017-06-03T23:47:04.564Z,100
2017-06-03T23:57:14.152Z,100
